Time;durP1;ratioP1;P1;durP2;ratioP2;P2;SDS_P1;SDS_P2;PMS_P1;PMS_P2;Temp;Humidity;BMP_temperature;BMP_pressure;BME280_temperature;BME280_humidity;BME280_pressure;Samples;Min_cycle;Max_cycle;Signal;HPM_P1;HPM_P2
2020/12/16 00:01:30;;;;;;;41.70;30.25;;;6.60;99.90;;;;;;5065650;28;20376;-71
2020/12/16 00:03:56;;;;;;;47.05;32.40;;;6.30;99.90;;;;;;5059610;28;20397;-71
2020/12/16 00:06:21;;;;;;;44.70;30.93;;;6.50;99.90;;;;;;5063057;28;20391;-72
2020/12/16 00:08:47;;;;;;;43.53;30.80;;;5.70;99.90;;;;;;5062701;28;20372;-71
2020/12/16 00:11:13;;;;;;;42.72;30.77;;;;;;;;;;5062944;28;20463;-71
2020/12/16 00:13:39;;;;;;;43.95;31.02;;;6.80;99.90;;;;;;5060265;28;20461;-71
2020/12/16 00:16:07;;;;;;;44.50;31.83;;;6.10;99.90;;;;;;5062601;28;20415;-71
2020/12/16 00:18:33;;;;;;;43.05;31.55;;;;;;;;;;5061716;28;20388;-72
2020/12/16 00:20:59;;;;;;;44.90;31.90;;;6.50;99.90;;;;;;5061642;28;20381;-71
2020/12/16 00:23:25;;;;;;;43.43;31.10;;;;;;;;;;5064446;28;20409;-72
2020/12/16 00:25:50;;;;;;;48.30;31.92;;;6.80;99.90;;;;;;5060598;28;20385;-71
2020/12/16 00:28:16;;;;;;;48.87;34.30;;;6.40;99.90;;;;;;5064645;28;20455;-72
2020/12/16 00:30:47;;;;;;;46.13;32.03;;;;;;;;;;5059201;28;20786;-72
2020/12/16 00:33:16;;;;;;;44.47;31.08;;;6.30;99.90;;;;;;5063488;28;20377;-71
2020/12/16 00:35:43;;;;;;;38.60;29.13;;;6.50;99.90;;;;;;5065465;28;20486;-71
2020/12/16 00:38:10;;;;;;;41.28;29.65;;;;;;;;;;5059095;28;20475;-71
2020/12/16 00:40:36;;;;;;;43.63;30.55;;;;;;;;;;5065029;28;20407;-71
2020/12/16 00:43:02;;;;;;;43.30;30.23;;;;;;;;;;5058913;28;20385;-72
2020/12/16 00:45:28;;;;;;;40.45;29.45;;;;;;;;;;5060948;28;20378;-73
2020/12/16 00:47:54;;;;;;;41.63;30.58;;;;;;;;;;5061622;28;20753;-72
2020/12/16 00:50:20;;;;;;;44.90;31.10;;;;;;;;;;5062043;28;20442;-72
2020/12/16 00:52:46;;;;;;;42.95;30.77;;;;;;;;;;5059997;28;20380;-72
2020/12/16 00:55:11;;;;;;;43.13;31.20;;;6.20;99.90;;;;;;5062181;28;20407;-71
2020/12/16 00:57:37;;;;;;;46.20;32.73;;;6.50;99.90;;;;;;5062533;28;21646;-72
2020/12/16 01:00:07;;;;;;;47.92;33.42;;;6.50;99.90;;;;;;5061667;28;20422;-72
2020/12/16 01:02:33;;;;;;;54.30;35.35;;;6.90;99.90;;;;;;5062005;28;20386;-72
2020/12/16 01:04:59;;;;;;;57.63;36.72;;;6.60;99.90;;;;;;5061072;28;20397;-72
2020/12/16 01:07:25;;;;;;;56.70;36.70;;;;;;;;;;5061253;28;20381;-73
2020/12/16 01:09:51;;;;;;;51.70;35.50;;;6.00;99.90;;;;;;5050353;28;20387;-73
2020/12/16 01:12:16;;;;;;;55.80;37.05;;;;;;;;;;5050061;28;20954;-73
2020/12/16 01:14:42;;;;;;;53.15;36.13;;;6.80;99.90;;;;;;5050139;28;20417;-73
2020/12/16 01:17:10;;;;;;;51.58;34.35;;;6.30;99.90;;;;;;5066821;28;20382;-73
2020/12/16 01:19:36;;;;;;;50.47;34.53;;;6.60;99.90;;;;;;5070337;28;20444;-72
2020/12/16 01:22:02;;;;;;;50.60;35.03;;;6.30;99.90;;;;;;5070383;28;20869;-73
2020/12/16 01:24:28;;;;;;;48.65;32.35;;;7.00;99.90;;;;;;5070246;28;20400;-72
2020/12/16 01:26:54;;;;;;;50.67;34.33;;;;;;;;;;5053192;28;20385;-73
2020/12/16 01:29:20;;;;;;;50.53;34.55;;;;;;;;;;5050194;28;20374;-72
2020/12/16 01:31:47;;;;;;;52.88;34.75;;;;;;;;;;5050236;28;20388;-71
2020/12/16 01:34:13;;;;;;;52.40;34.55;;;;;;;;;;5049922;28;20941;-72
2020/12/16 01:36:42;;;;;;;50.65;34.15;;;6.60;99.90;;;;;;5049991;28;20476;-72
2020/12/16 01:39:09;;;;;;;53.93;34.80;;;;;;;;;;5050179;28;20481;-72
2020/12/16 01:41:39;;;;;;;53.90;35.40;;;6.00;99.90;;;;;;5050051;28;20902;-71
2020/12/16 01:44:10;;;;;;;51.30;34.88;;;6.60;99.90;;;;;;5049788;28;20377;-72
2020/12/16 01:46:36;;;;;;;55.30;35.35;;;;;;;;;;5049937;28;20435;-72
2020/12/16 01:49:02;;;;;;;48.58;34.47;;;;;;;;;;5049947;28;20863;-72
2020/12/16 01:51:29;;;;;;;52.77;35.93;;;6.30;99.90;;;;;;5049969;28;20388;-72
2020/12/16 01:53:56;;;;;;;53.00;34.83;;;6.50;99.90;;;;;;5049779;28;20395;-72
2020/12/16 01:56:25;;;;;;;52.75;35.00;;;6.60;99.90;;;;;;5049904;28;20416;-72
2020/12/16 01:58:53;;;;;;;52.28;34.20;;;6.20;99.90;;;;;;5053778;28;20476;-72
2020/12/16 02:01:23;;;;;;;49.38;34.17;;;6.60;99.90;;;;;;5053794;28;20830;-73
2020/12/16 02:03:52;;;;;;;52.15;35.63;;;;;;;;;;5053418;28;20397;-73
2020/12/16 02:06:20;;;;;;;50.63;34.28;;;5.90;99.90;;;;;;5053670;28;20408;-73
2020/12/16 02:08:57;;;;;;;50.78;33.75;;;6.90;99.90;;;;;;5053615;28;20859;-72
2020/12/16 02:11:23;;;;;;;48.47;32.95;;;6.30;99.90;;;;;;5063156;28;20402;-73
2020/12/16 02:13:48;;;;;;;48.83;33.70;;;6.60;99.90;;;;;;5073120;28;20396;-73
2020/12/16 02:16:14;;;;;;;52.97;34.73;;;6.90;99.90;;;;;;5073403;28;20403;-72
2020/12/16 02:18:46;;;;;;;48.80;33.23;;;;;;;;;;5073351;28;20396;-71
2020/12/16 02:21:12;;;;;;;48.83;33.67;;;;;;;;;;5073424;28;20372;-71
2020/12/16 02:23:41;;;;;;;48.55;33.50;;;6.60;99.90;;;;;;5073022;28;20456;-71
2020/12/16 02:26:08;;;;;;;51.10;34.22;;;6.60;99.90;;;;;;5073196;28;20466;-72
2020/12/16 02:28:33;;;;;;;51.42;34.13;;;6.80;99.90;;;;;;5073245;28;20387;-72
2020/12/16 02:30:59;;;;;;;50.37;33.43;;;6.40;99.90;;;;;;5073141;28;20841;-72
2020/12/16 02:33:25;;;;;;;49.53;33.43;;;6.40;99.90;;;;;;5072856;28;20410;-72
2020/12/16 02:35:50;;;;;;;48.33;32.80;;;6.60;99.90;;;;;;5062685;28;20469;-72
2020/12/16 02:38:16;;;;;;;50.10;34.23;;;6.60;99.90;;;;;;5053066;28;20416;-72
2020/12/16 02:40:42;;;;;;;49.97;33.50;;;;;;;;;;5053049;28;20420;-72
2020/12/16 02:43:07;;;;;;;52.77;34.63;;;6.20;99.90;;;;;;5052680;28;20389;-71
2020/12/16 02:45:33;;;;;;;54.23;34.87;;;;;;;;;;5052930;28;20420;-72
2020/12/16 02:47:59;;;;;;;55.75;35.08;;;6.30;99.90;;;;;;5053197;28;20395;-72
2020/12/16 02:50:25;;;;;;;54.95;35.00;;;;;;;;;;5052889;28;20389;-72
2020/12/16 02:52:50;;;;;;;53.13;35.20;;;;;;;;;;5052601;28;20608;-72
2020/12/16 02:55:16;;;;;;;49.80;33.78;;;6.50;99.90;;;;;;5052689;28;20416;-73
2020/12/16 02:57:42;;;;;;;52.57;34.17;;;6.10;99.90;;;;;;5052686;28;20382;-73
2020/12/16 03:00:08;;;;;;;49.27;33.70;;;;;;;;;;5052723;28;20452;-73
2020/12/16 03:02:33;;;;;;;51.57;34.63;;;;;;;;;;5052309;28;20408;-73
2020/12/16 03:04:59;;;;;;;51.90;35.10;;;5.90;99.90;;;;;;5052623;28;20381;-73
2020/12/16 03:07:25;;;;;;;53.50;33.40;;;6.60;99.90;;;;;;5052068;28;20385;-72
2020/12/16 03:09:50;;;;;;;58.93;37.03;;;6.60;99.90;;;;;;5052529;28;20382;-72
2020/12/16 03:12:16;;;;;;;60.10;36.90;;;;;;;;;;5052179;28;20385;-72
2020/12/16 03:14:43;;;;;;;60.03;36.88;;;;;;;;;;5052267;28;20811;-72
2020/12/16 03:17:08;;;;;;;60.78;37.55;;;6.20;99.90;;;;;;5052231;28;20435;-71
2020/12/16 03:19:34;;;;;;;59.75;36.75;;;6.50;99.90;;;;;;5052328;28;20887;-72
2020/12/16 03:22:00;;;;;;;62.03;37.70;;;6.20;99.90;;;;;;5052140;28;20393;-72
2020/12/16 03:24:25;;;;;;;54.83;35.70;;;6.00;99.90;;;;;;5052434;28;20390;-72
2020/12/16 03:26:51;;;;;;;63.95;37.85;;;6.60;99.90;;;;;;5052126;28;20413;-72
2020/12/16 03:29:16;;;;;;;64.90;38.00;;;6.50;99.90;;;;;;5052278;28;20389;-72
2020/12/16 03:31:42;;;;;;;61.90;37.42;;;5.50;99.90;;;;;;5052199;28;20759;-72
2020/12/16 03:34:07;;;;;;;66.47;38.57;;;5.70;99.90;;;;;;5051791;28;20469;-72
2020/12/16 03:36:34;;;;;;;64.00;37.73;;;5.90;99.90;;;;;;5051850;28;20493;-72
2020/12/16 03:39:00;;;;;;;63.67;38.67;;;5.70;99.90;;;;;;5052002;28;20435;-72
2020/12/16 03:41:26;;;;;;;62.73;38.53;;;;;;;;;;5051909;28;20770;-71
2020/12/16 03:43:51;;;;;;;69.35;38.90;;;6.40;99.90;;;;;;5051737;28;20929;-71
2020/12/16 03:46:17;;;;;;;69.57;40.65;;;6.10;99.90;;;;;;5051768;28;20871;-72
2020/12/16 03:48:44;;;;;;;69.65;40.15;;;5.50;99.90;;;;;;5051830;28;20390;-72
2020/12/16 03:51:11;;;;;;;71.22;40.08;;;6.50;99.90;;;;;;5051716;28;20464;-71
2020/12/16 03:53:38;;;;;;;69.07;39.42;;;5.90;99.90;;;;;;5051546;28;20399;-72
2020/12/16 03:56:07;;;;;;;69.28;39.03;;;;;;;;;;5051429;28;20405;-72
2020/12/16 03:58:33;;;;;;;72.70;40.83;;;5.90;99.90;;;;;;5051602;28;20457;-72
2020/12/16 04:00:59;;;;;;;66.10;38.40;;;;;;;;;;5051509;28;20452;-72
2020/12/16 04:03:24;;;;;;;68.00;39.28;;;6.30;99.90;;;;;;5051268;28;20932;-72
2020/12/16 04:05:50;;;;;;;70.43;40.03;;;6.60;99.90;;;;;;5051323;28;20385;-72
2020/12/16 04:08:15;;;;;;;74.20;44.70;;;6.10;99.90;;;;;;5051457;28;20377;-71
2020/12/16 04:10:41;;;;;;;69.73;39.63;;;;;;;;;;5051354;28;20435;-71
2020/12/16 04:13:07;;;;;;;59.60;36.33;;;6.50;99.90;;;;;;5051151;28;20875;-71
2020/12/16 04:15:32;;;;;;;67.03;40.60;;;6.40;99.90;;;;;;5050899;28;20484;-72
2020/12/16 04:17:58;;;;;;;65.70;39.70;;;;;;;;;;5051242;28;20875;-71
2020/12/16 04:20:24;;;;;;;65.93;37.43;;;6.70;99.90;;;;;;5050332;28;20384;-72
2020/12/16 04:22:49;;;;;;;67.23;39.10;;;6.10;99.90;;;;;;5050936;28;20732;-72
2020/12/16 04:25:15;;;;;;;70.40;41.43;;;6.70;99.90;;;;;;5050898;28;20913;-72
2020/12/16 04:27:40;;;;;;;64.67;37.83;;;5.70;99.90;;;;;;5051023;28;20838;-72
2020/12/16 04:30:06;;;;;;;67.13;38.00;;;;;;;;;;5050951;28;20863;-72
2020/12/16 04:32:32;;;;;;;72.10;39.13;;;;;;;;;;5050720;28;20396;-72
2020/12/16 04:34:58;;;;;;;63.45;38.10;;;6.10;99.90;;;;;;5050761;28;20505;-73
2020/12/16 04:37:23;;;;;;;64.20;38.47;;;6.00;99.90;;;;;;5050790;28;20377;-72
2020/12/16 04:39:49;;;;;;;61.50;37.13;;;5.70;99.90;;;;;;5050810;28;20424;-72
2020/12/16 04:42:14;;;;;;;66.30;38.97;;;6.30;99.90;;;;;;5050512;28;20385;-73
2020/12/16 04:44:41;;;;;;;64.97;38.23;;;5.60;99.90;;;;;;5050799;28;20393;-72
2020/12/16 04:47:07;;;;;;;71.40;39.80;;;6.00;99.90;;;;;;5050605;28;20385;-72
2020/12/16 04:49:33;;;;;;;70.88;40.08;;;6.00;99.90;;;;;;5050569;28;20396;-73
2020/12/16 04:51:59;;;;;;;65.10;37.20;;;6.40;99.90;;;;;;5050622;28;20389;-72
2020/12/16 04:54:25;;;;;;;71.82;39.20;;;;;;;;;;5050362;28;20425;-72
2020/12/16 04:56:50;;;;;;;71.93;40.08;;;5.70;99.90;;;;;;5050540;28;20384;-72
2020/12/16 04:59:16;;;;;;;68.03;38.65;;;5.20;99.90;;;;;;5050542;28;20403;-71
2020/12/16 05:01:43;;;;;;;70.75;39.60;;;6.60;99.90;;;;;;5050515;28;20389;-72
2020/12/16 05:04:09;;;;;;;61.45;37.25;;;6.30;99.90;;;;;;5050287;28;20382;-73
2020/12/16 05:06:39;;;;;;;71.45;39.58;;;5.80;99.90;;;;;;5050453;28;20378;-73
2020/12/16 05:09:09;;;;;;;69.05;39.67;;;;;;;;;;5050424;28;20712;-73
2020/12/16 05:11:37;;;;;;;68.18;38.45;;;6.40;99.90;;;;;;5050407;28;20385;-72
2020/12/16 05:14:23;;;;;;;69.00;38.42;;;5.40;99.90;;;;;;5068062;28;20457;-72
2020/12/16 05:16:53;;;;;;;64.88;37.60;;;5.90;99.90;;;;;;5070252;28;20470;-71
2020/12/16 05:19:33;;;;;;;71.45;39.65;;;6.30;99.90;;;;;;5070374;28;20482;-72
2020/12/16 05:22:12;;;;;;;75.07;41.67;;;5.60;99.90;;;;;;5070316;28;20376;-73
2020/12/16 05:24:38;;;;;;;86.13;44.90;;;5.60;99.90;;;;;;5070312;28;20742;-72
2020/12/16 05:27:04;;;;;;;91.15;46.75;;;5.50;99.90;;;;;;5070144;28;20376;-72
2020/12/16 05:29:30;;;;;;;98.53;48.67;;;6.00;99.90;;;;;;5070284;28;20989;-72
2020/12/16 05:31:55;;;;;;;90.70;48.20;;;5.80;99.90;;;;;;5073095;28;20384;-71
2020/12/16 05:34:30;;;;;;;99.10;50.80;;;;;;;;;;5074164;28;20388;-72
2020/12/16 05:36:56;;;;;;;117.35;53.58;;;;;;;;;;5054914;28;20385;-72
2020/12/16 05:39:21;;;;;;;111.45;52.67;;;5.60;99.90;;;;;;5054150;28;20469;-72
2020/12/16 05:41:56;;;;;;;99.13;50.65;;;5.60;99.90;;;;;;5054152;28;20388;-72
2020/12/16 05:44:24;;;;;;;102.18;52.00;;;5.70;99.90;;;;;;5053790;28;20547;-72
2020/12/16 05:46:51;;;;;;;106.82;52.35;;;;;;;;;;5054070;28;20394;-72
2020/12/16 05:49:42;;;;;;;102.28;51.33;;;6.40;99.90;;;;;;5053966;28;20392;-72
2020/12/16 05:52:08;;;;;;;109.57;52.07;;;;;;;;;;5053498;28;20477;-72
2020/12/16 05:54:36;;;;;;;102.82;51.35;;;5.80;99.90;;;;;;5053909;28;20496;-72
2020/12/16 05:57:19;;;;;;;106.13;52.28;;;6.20;99.90;;;;;;5053893;28;20400;-72
2020/12/16 06:00:08;;;;;;;103.93;50.22;;;6.50;99.90;;;;;;5053799;28;20373;-72
2020/12/16 06:02:36;;;;;;;99.35;50.22;;;5.60;99.90;;;;;;5053697;28;20405;-72
2020/12/16 06:05:05;;;;;;;98.00;49.07;;;6.60;99.90;;;;;;5053743;28;20894;-72
2020/12/16 06:07:31;;;;;;;89.45;47.38;;;6.20;99.90;;;;;;5053576;28;20890;-71
2020/12/16 06:09:57;;;;;;;98.82;49.03;;;6.20;99.90;;;;;;5053736;28;20377;-71
2020/12/16 06:12:27;;;;;;;87.70;45.70;;;;;;;;;;5053345;28;21083;-72
2020/12/16 06:15:11;;;;;;;89.43;45.88;;;6.50;99.90;;;;;;5053575;28;20409;-72
2020/12/16 06:17:42;;;;;;;95.83;46.83;;;6.30;99.90;;;;;;5053421;28;20385;-71
2020/12/16 06:20:09;;;;;;;89.50;45.78;;;;;;;;;;5053478;28;20377;-72
2020/12/16 06:22:36;;;;;;;93.95;46.85;;;5.60;99.90;;;;;;5053209;28;20377;-72
2020/12/16 06:25:04;;;;;;;96.85;49.15;;;;;;;;;;5053338;28;20439;-71
2020/12/16 06:27:36;;;;;;;91.65;48.17;;;5.60;99.90;;;;;;5053279;28;20481;-71
2020/12/16 06:30:04;;;;;;;113.90;54.15;;;5.60;99.90;;;;;;5053315;28;20381;-71
2020/12/16 06:32:38;;;;;;;92.95;47.03;;;;;;;;;;5053007;28;20431;-71
2020/12/16 06:35:04;;;;;;;86.35;45.10;;;5.60;99.90;;;;;;5053080;28;20504;-72
2020/12/16 06:37:30;;;;;;;84.63;44.67;;;;;;;;;;5052910;28;20476;-71
2020/12/16 06:39:55;;;;;;;79.27;43.50;;;5.90;99.90;;;;;;5052958;28;20415;-71
2020/12/16 06:42:34;;;;;;;81.37;43.73;;;;;;;;;;5052040;28;20385;-71
2020/12/16 06:45:16;;;;;;;83.53;44.73;;;5.70;99.90;;;;;;5053288;28;20752;-72
2020/12/16 06:47:42;;;;;;;95.30;46.65;;;6.50;99.90;;;;;;5052832;28;20887;-72
2020/12/16 06:50:20;;;;;;;98.65;46.78;;;5.90;99.90;;;;;;5052913;28;20393;-72
2020/12/16 06:52:47;;;;;;;91.85;47.00;;;6.60;99.90;;;;;;5052576;28;20393;-71
2020/12/16 06:55:13;;;;;;;78.97;42.90;;;6.30;99.90;;;;;;5052712;28;20412;-71
2020/12/16 06:57:49;;;;;;;92.72;45.88;;;5.70;99.90;;;;;;5052707;28;20382;-71
2020/12/16 07:00:25;;;;;;;96.85;45.58;;;5.90;99.90;;;;;;5052855;28;20891;-72
2020/12/16 07:02:51;;;;;;;100.32;48.03;;;;;;;;;;5052478;28;20464;-71
2020/12/16 07:05:37;;;;;;;109.18;48.97;;;6.10;99.90;;;;;;5052696;28;20822;-71
2020/12/16 07:08:04;;;;;;;102.87;49.43;;;6.60;99.90;;;;;;5052665;28;20385;-71
2020/12/16 07:10:41;;;;;;;95.67;47.17;;;6.20;99.90;;;;;;5052573;28;20838;-72
2020/12/16 07:13:26;;;;;;;110.55;49.78;;;6.50;99.90;;;;;;5052284;28;20421;-72
2020/12/16 07:15:58;;;;;;;82.90;44.67;;;5.60;99.90;;;;;;5051405;28;20490;-73
2020/12/16 07:18:27;;;;;;;132.32;54.42;;;;;;;;;;5051856;28;21060;-71
2020/12/16 07:21:08;;;;;;;120.43;52.38;;;5.90;99.90;;;;;;5051486;28;20373;-71
2020/12/16 07:24:00;;;;;;;129.60;56.42;;;;;;;;;;5050983;28;20386;-71
2020/12/16 07:26:32;;;;;;;114.90;54.00;;;6.10;99.90;;;;;;5051171;28;20903;-71
2020/12/16 07:28:59;;;;;;;127.03;56.20;;;6.40;99.90;;;;;;5051187;28;20408;-71
2020/12/16 07:31:26;;;;;;;121.70;55.55;;;6.50;99.90;;;;;;5051591;28;20940;-72
2020/12/16 07:33:52;;;;;;;136.25;56.92;;;6.40;99.90;;;;;;5051112;28;20871;-72
2020/12/16 07:36:19;;;;;;;118.90;54.05;;;5.80;99.90;;;;;;5050555;28;20405;-71
2020/12/16 07:38:54;;;;;;;111.32;51.92;;;5.80;99.90;;;;;;5060480;28;20407;-74
2020/12/16 07:41:28;;;;;;;155.20;61.15;;;6.10;99.90;;;;;;5052750;28;20460;-71
2020/12/16 07:43:55;;;;;;;133.15;56.30;;;6.10;99.90;;;;;;5051384;28;20512;-71
2020/12/16 07:46:22;;;;;;;122.20;52.65;;;;;;;;;;5050852;28;20397;-71
2020/12/16 07:48:48;;;;;;;104.20;56.22;;;6.70;99.90;;;;;;5051294;28;20701;-72
2020/12/16 07:51:14;;;;;;;109.20;65.25;;;;;;;;;;5050465;28;20400;-72
2020/12/16 07:53:46;;;;;;;93.45;49.88;;;6.60;99.90;;;;;;5049896;28;20385;-71
2020/12/16 07:56:14;;;;;;;119.90;53.70;;;;;;;;;;5050797;28;20405;-71
2020/12/16 07:58:40;;;;;;;101.80;51.72;;;;;;;;;;5049715;28;20469;-71
2020/12/16 08:01:12;;;;;;;120.82;56.42;;;6.10;99.90;;;;;;5049044;28;20411;-71
2020/12/16 08:03:38;;;;;;;118.38;53.15;;;;;;;;;;5049149;28;20394;-75
2020/12/16 08:06:04;;;;;;;107.03;50.53;;;;;;;;;;5049469;28;20417;-72
2020/12/16 08:08:31;;;;;;;107.17;49.67;;;6.20;99.90;;;;;;5050253;28;20423;-71
2020/12/16 08:10:57;;;;;;;109.32;50.67;;;6.20;99.90;;;;;;5049672;28;20887;-71
2020/12/16 08:13:24;;;;;;;103.03;50.17;;;6.40;99.90;;;;;;5049069;28;20394;-71
2020/12/16 08:15:50;;;;;;;110.25;51.40;;;6.30;99.90;;;;;;5049824;28;20805;-72
2020/12/16 08:18:17;;;;;;;104.80;50.28;;;6.60;99.90;;;;;;5048824;28;20413;-71
2020/12/16 08:20:44;;;;;;;97.53;49.00;;;6.40;99.90;;;;;;5050159;28;20381;-72
2020/12/16 08:23:14;;;;;;;88.45;47.28;;;6.20;99.90;;;;;;5050004;28;20460;-71
2020/12/16 08:25:43;;;;;;;83.15;45.00;;;5.90;99.90;;;;;;5042868;28;20416;-71
2020/12/16 08:28:09;;;;;;;73.82;42.75;;;6.50;99.90;;;;;;5047874;28;20436;-71
2020/12/16 08:30:38;;;;;;;81.27;42.63;;;;;;;;;;5048926;28;20386;-72
2020/12/16 08:33:12;;;;;;;78.13;44.05;;;6.60;99.90;;;;;;5048938;28;20720;-71
2020/12/16 08:35:41;;;;;;;84.57;45.38;;;;;;;;;;5048760;28;20891;-71
2020/12/16 08:38:09;;;;;;;83.72;44.58;;;6.70;99.90;;;;;;5048879;28;20377;-71
2020/12/16 08:40:39;;;;;;;79.95;44.10;;;;;;;;;;5048750;28;20397;-71
2020/12/16 08:43:27;;;;;;;78.25;46.60;;;6.90;99.90;;;;;;5047679;28;20901;-71
2020/12/16 08:46:12;;;;;;;77.80;45.08;;;;;;;;;;5049606;28;20385;-71
2020/12/16 08:48:52;;;;;;;77.40;42.92;;;6.20;99.90;;;;;;5044078;28;20400;-72
2020/12/16 08:51:38;;;;;;;79.40;42.60;;;6.60;99.90;;;;;;5048565;28;20393;-71
2020/12/16 08:54:10;;;;;;;70.45;42.58;;;6.10;99.90;;;;;;5049402;28;20728;-71
2020/12/16 08:56:39;;;;;;;72.57;42.95;;;6.30;99.90;;;;;;5043159;28;20413;-72
2020/12/16 08:59:11;;;;;;;79.43;45.15;;;;;;;;;;5047800;28;20472;-71
2020/12/16 09:01:38;;;;;;;83.90;47.25;;;;;;;;;;5048322;28;20464;-72
2020/12/16 09:04:04;;;;;;;87.90;48.95;;;;;;;;;;5049119;28;20466;-71
2020/12/16 09:06:30;;;;;;;74.93;43.37;;;;;;;;;;5048312;28;20416;-72
2020/12/16 09:08:56;;;;;;;59.03;36.17;;;;;;;;;;5048697;28;20408;-71
2020/12/16 09:11:23;;;;;;;52.05;32.05;;;6.70;99.90;;;;;;5048516;28;20382;-73
2020/12/16 09:13:49;;;;;;;48.30;30.60;;;6.70;99.90;;;;;;5048993;28;20401;-71
2020/12/16 09:16:21;;;;;;;51.53;31.88;;;6.80;99.90;;;;;;5048425;28;21413;-72
2020/12/16 09:18:48;;;;;;;49.42;31.35;;;6.80;99.90;;;;;;5048607;28;20489;-72
2020/12/16 09:21:29;;;;;;;56.00;33.70;;;6.80;99.90;;;;;;5048901;28;20379;-71
2020/12/16 09:23:55;;;;;;;52.38;32.17;;;;;;;;;;5048604;28;20389;-71
2020/12/16 09:26:35;;;;;;;54.53;33.47;;;7.20;99.90;;;;;;5048151;28;20396;-72
2020/12/16 09:29:00;;;;;;;50.58;32.33;;;;;;;;;;5038491;28;20392;-71
2020/12/16 09:31:26;;;;;;;54.55;34.13;;;7.40;99.90;;;;;;5049316;28;20976;-72
2020/12/16 09:33:59;;;;;;;51.23;31.97;;;6.80;99.90;;;;;;5047960;28;20386;-71
2020/12/16 09:36:28;;;;;;;49.28;30.65;;;7.30;99.90;;;;;;5049623;28;20776;-71
2020/12/16 09:38:58;;;;;;;50.35;32.05;;;7.30;99.90;;;;;;5048586;28;20894;-72
2020/12/16 09:41:24;;;;;;;52.42;32.35;;;7.20;99.90;;;;;;5047812;28;20400;-71
2020/12/16 09:43:49;;;;;;;48.83;32.03;;;7.40;99.90;;;;;;5048755;28;20423;-72
2020/12/16 09:46:17;;;;;;;49.10;31.33;;;7.50;99.90;;;;;;5048967;28;20815;-71
2020/12/16 09:48:43;;;;;;;52.60;33.33;;;7.30;99.90;;;;;;5049195;28;20381;-71
2020/12/16 09:51:19;;;;;;;50.67;32.60;;;;;;;;;;5048473;28;20891;-72
2020/12/16 09:53:46;;;;;;;52.33;32.95;;;7.40;99.90;;;;;;5046593;28;20373;-71
2020/12/16 09:56:22;;;;;;;53.07;32.83;;;;;;;;;;5048823;28;20413;-72
2020/12/16 09:58:47;;;;;;;47.70;30.88;;;;;;;;;;5048967;28;20417;-71
2020/12/16 10:01:13;;;;;;;45.63;29.58;;;7.60;99.90;;;;;;5047946;28;20409;-72
2020/12/16 10:03:38;;;;;;;80.60;57.40;;;7.10;99.90;;;;;;5048694;28;20425;-71
2020/12/16 10:06:05;;;;;;;55.90;36.73;;;7.10;99.90;;;;;;5048637;28;20424;-72
2020/12/16 10:08:31;;;;;;;49.10;32.35;;;7.10;99.90;;;;;;5048715;28;20385;-71
2020/12/16 10:10:56;;;;;;;54.63;38.23;;;7.30;99.90;;;;;;5048728;28;20741;-71
2020/12/16 10:13:22;;;;;;;45.77;31.27;;;7.00;99.90;;;;;;5048367;28;20480;-72
2020/12/16 10:15:49;;;;;;;50.70;33.60;;;;;;;;;;5048905;28;20553;-72
2020/12/16 10:18:14;;;;;;;51.05;33.92;;;7.10;99.90;;;;;;5050685;28;20381;-72
2020/12/16 10:20:40;;;;;;;45.90;30.93;;;;;;;;;;5053333;28;20381;-71
2020/12/16 10:23:06;;;;;;;44.27;28.80;;;7.20;99.90;;;;;;5053140;28;20883;-71
2020/12/16 10:25:32;;;;;;;41.50;27.83;;;;;;;;;;5052767;28;20476;-71
2020/12/16 10:27:58;;;;;;;34.45;23.73;;;;;;;;;;5053551;28;20377;-71
2020/12/16 10:30:26;;;;;;;36.10;24.70;;;7.70;99.90;;;;;;5052497;28;20409;-71
2020/12/16 10:32:53;;;;;;;36.33;23.20;;;7.50;99.90;;;;;;5052745;28;20468;-72
2020/12/16 10:35:18;;;;;;;32.13;22.17;;;;;;;;;;5051884;28;20433;-72
2020/12/16 10:37:45;;;;;;;37.22;24.45;;;7.80;99.90;;;;;;5052465;28;20420;-71
2020/12/16 10:40:11;;;;;;;34.97;22.77;;;7.80;99.90;;;;;;5052741;28;20789;-71
2020/12/16 10:42:37;;;;;;;33.77;23.40;;;7.80;99.90;;;;;;5052295;28;20932;-72
2020/12/16 10:45:04;;;;;;;37.00;25.13;;;8.00;99.90;;;;;;5052642;28;20484;-72
2020/12/16 10:47:29;;;;;;;36.37;25.50;;;8.10;99.90;;;;;;5052047;28;20385;-72
2020/12/16 10:49:55;;;;;;;37.23;25.03;;;8.20;99.90;;;;;;5051776;28;20393;-72
2020/12/16 10:52:21;;;;;;;37.27;25.77;;;;;;;;;;5052259;28;20818;-71
2020/12/16 10:54:46;;;;;;;35.70;24.33;;;8.20;99.90;;;;;;5052395;28;20934;-72
2020/12/16 10:57:12;;;;;;;35.73;24.10;;;;;;;;;;5052416;28;20897;-72
2020/12/16 10:59:38;;;;;;;36.28;24.48;;;;;;;;;;5054766;28;20390;-71
2020/12/16 11:02:04;;;;;;;35.95;25.10;;;;;;;;;;5068761;28;20527;-71
2020/12/16 11:04:31;;;;;;;35.83;24.85;;;8.10;99.90;;;;;;5055921;28;20381;-71
2020/12/16 11:06:56;;;;;;;36.35;25.95;;;8.00;99.90;;;;;;5067780;28;20395;-72
2020/12/16 11:09:23;;;;;;;37.10;26.25;;;8.60;99.90;;;;;;5060269;28;20385;-72
2020/12/16 11:11:51;;;;;;;38.67;25.92;;;8.30;99.90;;;;;;5064264;28;20390;-71
2020/12/16 11:14:17;;;;;;;38.25;25.58;;;8.50;99.90;;;;;;5065098;28;20426;-71
2020/12/16 11:16:44;;;;;;;36.40;26.25;;;8.50;99.90;;;;;;5060757;28;20492;-71
2020/12/16 11:19:11;;;;;;;39.80;26.88;;;8.30;99.90;;;;;;5063519;28;20478;-72
2020/12/16 11:21:38;;;;;;;36.55;24.70;;;;;;;;;;5063983;28;20447;-71
2020/12/16 11:24:04;;;;;;;35.57;24.57;;;;;;;;;;5060760;28;20407;-71
2020/12/16 11:26:30;;;;;;;34.55;25.05;;;;;;;;;;5063776;28;20410;-72
2020/12/16 11:28:55;;;;;;;35.00;23.42;;;8.50;99.90;;;;;;5062839;28;20937;-71
2020/12/16 11:31:21;;;;;;;35.58;24.60;;;9.00;99.90;;;;;;5063870;28;20391;-72
2020/12/16 11:33:47;;;;;;;34.63;24.38;;;8.40;99.90;;;;;;5061366;28;20476;-71
2020/12/16 11:36:13;;;;;;;39.25;26.38;;;;;;;;;;5066216;28;20402;-72
2020/12/16 11:38:39;;;;;;;37.47;26.67;;;;;;;;;;5060210;28;20399;-71
2020/12/16 11:41:04;;;;;;;36.77;25.47;;;8.80;99.90;;;;;;5058652;28;20385;-72
2020/12/16 11:43:30;;;;;;;35.70;23.43;;;;;;;;;;5059899;28;20464;-71
2020/12/16 11:45:56;;;;;;;36.00;23.88;;;9.00;99.90;;;;;;5065369;28;20434;-71
2020/12/16 11:48:22;;;;;;;33.58;22.70;;;8.80;99.90;;;;;;5061164;28;20415;-71
2020/12/16 11:50:48;;;;;;;32.25;21.40;;;9.30;99.90;;;;;;5062113;28;20444;-72
2020/12/16 11:53:14;;;;;;;34.25;22.45;;;;;;;;;;5062326;28;20388;-71
2020/12/16 11:55:39;;;;;;;32.50;22.23;;;9.30;99.90;;;;;;5062941;28;20407;-71
2020/12/16 11:58:06;;;;;;;36.23;24.27;;;8.70;99.90;;;;;;5051492;28;20438;-72
2020/12/16 12:00:31;;;;;;;38.30;25.42;;;9.10;99.90;;;;;;5063006;28;20482;-71
2020/12/16 12:02:57;;;;;;;39.38;26.00;;;8.70;99.90;;;;;;5061391;28;20451;-72
2020/12/16 12:05:22;;;;;;;38.83;25.17;;;9.20;99.90;;;;;;5062416;28;20387;-72
2020/12/16 12:07:48;;;;;;;40.90;27.87;;;9.30;99.90;;;;;;5057767;28;20385;-71
2020/12/16 12:10:13;;;;;;;41.13;28.63;;;9.30;99.90;;;;;;5066192;28;20875;-71
2020/12/16 12:12:39;;;;;;;43.67;28.73;;;;;;;;;;5058802;28;20467;-72
2020/12/16 12:15:06;;;;;;;39.47;27.13;;;;;;;;;;5065456;28;20516;-72
2020/12/16 12:17:32;;;;;;;40.25;27.92;;;;;;;;;;5052703;28;20377;-71
2020/12/16 12:19:58;;;;;;;40.55;27.30;;;;;;;;;;5064194;28;20780;-71
2020/12/16 12:22:24;;;;;;;38.95;27.20;;;;;;;;;;5064207;28;20375;-72
2020/12/16 12:24:50;;;;;;;39.13;26.23;;;;;;;;;;5060837;28;20380;-71
2020/12/16 12:27:16;;;;;;;37.80;25.67;;;9.00;99.90;;;;;;5055197;28;20375;-71
2020/12/16 12:29:42;;;;;;;39.00;26.05;;;;;;;;;;5061815;28;20384;-71
2020/12/16 12:32:08;;;;;;;38.13;26.42;;;;;;;;;;5059440;28;20463;-72
2020/12/16 12:34:34;;;;;;;39.07;26.43;;;;;;;;;;5060650;28;20382;-72
2020/12/16 12:37:01;;;;;;;37.50;26.08;;;;;;;;;;5061438;28;21116;-72
2020/12/16 12:39:27;;;;;;;37.40;26.42;;;8.60;99.90;;;;;;5061731;28;20845;-72
2020/12/16 12:41:53;;;;;;;38.15;26.60;;;;;;;;;;5060295;28;20388;-71
2020/12/16 12:44:20;;;;;;;41.08;26.67;;;9.00;99.90;;;;;;5061624;28;20371;-71
2020/12/16 12:46:48;;;;;;;52.47;35.75;;;8.60;99.90;;;;;;5057644;28;20434;-71
2020/12/16 12:49:15;;;;;;;70.80;47.10;;;8.70;99.90;;;;;;5064979;28;20381;-71
2020/12/16 12:51:41;;;;;;;35.85;24.75;;;8.70;99.90;;;;;;5055700;28;20384;-72
2020/12/16 12:54:07;;;;;;;50.17;33.80;;;;;;;;;;5064789;28;20385;-72
2020/12/16 12:56:32;;;;;;;45.22;31.70;;;8.60;99.90;;;;;;5058507;28;20401;-71
2020/12/16 12:58:58;;;;;;;38.60;27.52;;;8.80;99.90;;;;;;5050042;28;20867;-71
2020/12/16 13:01:23;;;;;;;43.05;28.73;;;8.50;99.90;;;;;;5050067;28;20393;-71
2020/12/16 13:03:50;;;;;;;40.22;27.73;;;7.90;99.90;;;;;;5049903;28;20382;-72
2020/12/16 13:06:15;;;;;;;44.77;29.47;;;8.50;99.90;;;;;;5048486;28;20453;-71
2020/12/16 13:08:41;;;;;;;44.87;29.30;;;8.80;99.90;;;;;;5050484;28;20481;-72